Stations météo

réclame
Mon MeteoGroup
Hupsel aws, Pays-Bas (6283): Température de l'air & dewpoint: 13.06.2018 20:00:00 - 19.06.2018 20:00:00 (CEST)Hupsel aws, Pays-Bas (6283): Température de l'air 5cm: 13.06.2018 20:00:00 - 19.06.2018 20:00:00 (CEST)Hupsel aws, Pays-Bas (6283): Vitesse du vent & gusts: 13.06.2018 20:00:00 - 19.06.2018 20:00:00 (CEST)Hupsel aws, Pays-Bas (6283): Direction du vent: 13.06.2018 20:00:00 - 19.06.2018 20:00:00 (CEST)Hupsel aws, Pays-Bas (6283): Quantités de précipitations: 13.06.2018 20:00:00 - 19.06.2018 20:00:00 (CEST)
Date & Time tt [°C] td [°C] tt 5cm [°C] ff [km/h] ff [knt] fx [km/h] fx [knt] dd rr [mm]
19.06.2018 20:00:00 20,2 15,3 20,5 10 5 - - WSW -
19.06.2018 19:00:00 20,5 15,3 21,7 11 6 18 10 W 0,0
19.06.2018 18:00:00 20,2 16,0 21,3 11 6 22 12 WNW 0,0
19.06.2018 17:00:00 20,4 16,0 21,9 11 6 22 12 W 0,0
19.06.2018 16:00:00 20,9 16,3 23,2 11 6 22 12 W 0,0
19.06.2018 15:00:00 21,3 16,4 24,7 11 6 25 14 WSW 0,0
19.06.2018 14:00:00 20,7 15,8 22,9 14 8 25 14 WSW 0,0
19.06.2018 13:00:00 19,8 15,7 21,7 11 6 22 12 WSW 0,0
19.06.2018 12:00:00 18,4 15,6 19,6 11 6 22 12 SW 0,0
19.06.2018 11:00:00 18,3 15,6 19,8 11 6 22 12 SW 0,0
19.06.2018 10:00:00 16,6 14,9 17,1 14 8 29 16 SW 0,0
19.06.2018 09:00:00 16,5 13,9 17,6 11 6 22 12 SW 0,0
19.06.2018 08:00:00 16,0 13,3 16,5 11 6 22 12 SW 0,0
19.06.2018 07:00:00 15,6 12,7 15,5 11 6 22 12 SW 0,0
19.06.2018 06:00:00 15,5 12,3 15,0 11 6 25 14 SW 0,0
19.06.2018 05:00:00 15,5 12,0 14,8 7 4 22 12 SSW 0,0
19.06.2018 04:00:00 15,4 11,8 14,6 11 6 22 12 SSW 0,0
19.06.2018 03:00:00 14,8 12,0 13,0 11 6 14 8 S 0,0
19.06.2018 02:00:00 14,5 12,0 12,2 7 4 18 10 SSW 0,0
19.06.2018 01:00:00 14,7 12,3 11,4 7 4 11 6 SSW 0,0
19.06.2018 00:00:00 13,3 11,5 8,4 4 2 11 6 S 0,0
18.06.2018 23:00:00 15,7 12,2 12,9 7 4 22 12 SW 0,0
18.06.2018 22:00:00 17,5 12,4 16,4 14 8 25 14 WSW 0,0
18.06.2018 21:00:00 18,2 12,8 18,0 14 8 29 16 WSW 0,0
18.06.2018 20:00:00 18,7 14,1 18,7 14 8 29 16 W 0,0
18.06.2018 19:00:00 19,0 15,2 19,3 11 6 25 14 W 0,0
18.06.2018 18:00:00 19,1 15,4 19,7 14 8 25 14 WSW 0,0
18.06.2018 17:00:00 18,5 15,4 18,9 18 10 40 21 WSW 0,0
18.06.2018 16:00:00 19,2 15,8 19,8 18 10 36 19 WSW 0,5
18.06.2018 15:00:00 19,2 15,1 20,6 14 8 36 19 SW 0,0
18.06.2018 14:00:00 18,4 15,4 19,5 22 12 40 21 SW 0,0
18.06.2018 13:00:00 20,1 14,5 20,5 18 10 32 18 WSW 0,0
18.06.2018 12:00:00 19,3 13,3 21,6 14 8 32 18 SW 0,0
18.06.2018 11:00:00 19,3 13,2 21,9 14 8 36 19 SSW 0,0
18.06.2018 10:00:00 18,4 13,3 20,8 11 6 29 16 SW 0,0
18.06.2018 09:00:00 16,7 12,7 17,3 14 8 22 12 SSW 0,0
18.06.2018 08:00:00 14,8 12,8 14,9 11 6 22 12 S 0,0
18.06.2018 07:00:00 14,2 12,5 13,7 11 6 22 12 SSW 0,0
18.06.2018 06:00:00 13,9 12,7 13,7 11 6 22 12 SSW 0,0
18.06.2018 05:00:00 15,2 11,2 14,2 11 6 22 12 SSW 0,0
18.06.2018 04:00:00 14,6 11,2 13,3 7 4 14 8 S 0,0
18.06.2018 03:00:00 13,8 11,5 11,5 7 4 11 6 SSE 0,0
18.06.2018 02:00:00 12,9 11,3 11,2 4 2 14 8 S 0,0
18.06.2018 01:00:00 14,6 11,5 14,0 11 6 18 10 S 0,0
18.06.2018 00:00:00 14,4 11,4 13,5 4 2 11 6 SSW 0,0
17.06.2018 23:00:00 14,1 11,5 13,0 4 2 11 6 S 0,0
17.06.2018 22:00:00 14,6 10,9 13,7 4 2 14 8 SW 0,0
17.06.2018 21:00:00 14,4 11,1 14,1 11 6 22 12 WSW 0,0
17.06.2018 20:00:00 14,6 11,7 14,2 11 6 40 21 WSW 0,0
17.06.2018 19:00:00 17,9 9,5 18,7 18 10 32 18 WSW 0,0
17.06.2018 18:00:00 18,6 10,3 21,2 14 8 29 16 SW 0,0
17.06.2018 17:00:00 18,8 10,1 20,2 14 8 29 16 SW 0,0
17.06.2018 16:00:00 19,0 9,9 21,1 14 8 32 18 WSW 0,0
17.06.2018 15:00:00 18,1 10,1 20,0 18 10 32 18 WSW 0,0
17.06.2018 14:00:00 18,0 10,2 18,1 22 12 32 18 WSW 0,0
17.06.2018 13:00:00 17,8 9,2 19,9 18 10 36 19 WSW 0,0
17.06.2018 12:00:00 17,8 9,5 19,7 22 12 32 18 WSW 0,0
17.06.2018 11:00:00 18,2 11,0 19,3 18 10 32 18 SW 0,0
17.06.2018 10:00:00 16,8 11,1 18,7 14 8 32 18 SSW 0,0
17.06.2018 09:00:00 16,3 10,8 18,2 18 10 32 18 SW 0,0
17.06.2018 08:00:00 15,4 10,5 16,0 14 8 29 16 SW 0,0
17.06.2018 07:00:00 15,1 10,2 14,9 11 6 25 14 SSW 0,0
17.06.2018 06:00:00 14,8 9,8 13,6 11 6 25 14 SSW 0,0
17.06.2018 05:00:00 14,7 10,0 13,1 11 6 18 10 SSW 0,0
17.06.2018 04:00:00 15,1 10,1 13,2 7 4 14 8 SSW 0,0
17.06.2018 03:00:00 15,2 10,3 12,8 7 4 18 10 SW 0,0
17.06.2018 02:00:00 14,8 11,2 12,4 4 2 7 4 SSW 0,0
17.06.2018 01:00:00 14,5 11,1 11,2 4 2 11 6 W 0,0
17.06.2018 00:00:00 16,4 11,5 14,3 4 2 7 4 SW 0,0
16.06.2018 23:00:00 17,4 12,2 16,2 4 2 11 6 W 0,0
16.06.2018 22:00:00 18,4 12,1 17,4 7 4 14 8 W 0,0
16.06.2018 21:00:00 19,0 11,8 18,7 11 6 22 12 WNW 0,0
16.06.2018 20:00:00 20,1 11,5 19,8 11 6 25 14 WNW 0,0
16.06.2018 19:00:00 22,3 11,2 22,8 11 6 25 14 W 0,0
16.06.2018 18:00:00 23,5 11,3 26,5 11 6 25 14 WSW 0,0
16.06.2018 17:00:00 23,2 10,8 25,2 14 8 32 18 SW 0,0
16.06.2018 16:00:00 23,8 10,0 28,5 11 6 29 16 WSW 0,0
16.06.2018 15:00:00 22,7 9,2 27,1 14 8 29 16 WSW 0,0
16.06.2018 14:00:00 22,0 11,2 24,4 18 10 32 18 SW 0,0
16.06.2018 13:00:00 21,7 12,4 23,4 14 8 29 16 SW 0,0
16.06.2018 12:00:00 21,3 12,6 25,4 14 8 25 14 WSW 0,0
16.06.2018 11:00:00 20,6 13,1 24,6 11 6 22 12 SW 0,0
16.06.2018 10:00:00 18,5 13,4 21,1 11 6 18 10 SSW 0,0
16.06.2018 09:00:00 17,2 13,5 18,4 7 4 14 8 SSW 0,0
16.06.2018 08:00:00 16,1 13,3 16,3 7 4 11 6 S 0,0
16.06.2018 07:00:00 14,6 12,1 13,5 4 2 11 6 SSW 0,0
16.06.2018 06:00:00 11,9 11,3 9,8 4 2 7 4 SE 0,0
16.06.2018 05:00:00 11,5 11,1 8,8 4 2 4 2 SE 0,0
16.06.2018 04:00:00 12,4 12,0 9,3 4 2 4 2 SE 0,0
16.06.2018 03:00:00 12,3 11,7 9,5 4 2 4 2 SSE 0,0
16.06.2018 02:00:00 13,0 12,1 9,9 0 0 11 6 N 0,0
16.06.2018 01:00:00 14,1 12,5 9,2 4 2 11 6 W 0,0
16.06.2018 00:00:00 14,3 12,4 10,7 4 2 11 6 N 0,0
15.06.2018 23:00:00 15,7 12,6 11,1 4 2 7 4 N 0,0
15.06.2018 22:00:00 17,4 12,5 15,4 7 4 11 6 N 0,0
15.06.2018 21:00:00 20,5 12,9 20,4 7 4 11 6 NW 0,0
15.06.2018 20:00:00 23,1 11,2 24,8 7 4 14 8 W 0,0
15.06.2018 19:00:00 23,9 10,6 27,2 7 4 22 12 WSW 0,0
15.06.2018 18:00:00 23,9 9,6 27,6 4 2 18 10 SSW 0,0
15.06.2018 17:00:00 23,9 10,2 28,2 11 6 18 10 WSW 0,0
15.06.2018 16:00:00 23,9 9,0 31,2 11 6 22 12 SW 0,0
15.06.2018 15:00:00 22,2 10,7 26,7 7 4 18 10 SE 0,0
15.06.2018 14:00:00 22,6 11,2 29,9 7 4 14 8 SSE 0,0
15.06.2018 13:00:00 20,9 12,4 26,0 4 2 14 8 S 0,0
15.06.2018 12:00:00 19,8 12,6 22,1 7 4 14 8 WSW 0,0
15.06.2018 11:00:00 18,8 14,2 20,2 4 2 11 6 SSW 0,0
15.06.2018 10:00:00 18,1 13,8 22,2 7 4 11 6 SSW 0,0
15.06.2018 09:00:00 17,4 14,4 21,3 7 4 14 8 S 0,0
15.06.2018 08:00:00 16,5 15,0 17,3 4 2 7 4 E 0,0
15.06.2018 07:00:00 15,0 14,7 15,1 4 2 4 2 SSE 0,0
15.06.2018 06:00:00 14,5 14,4 13,4 4 2 4 2 S 0,0
15.06.2018 05:00:00 13,2 13,1 11,2 0 0 4 2 N 0,0
15.06.2018 04:00:00 14,3 14,0 12,3 4 2 14 8 S 0,0
15.06.2018 03:00:00 15,4 14,5 14,9 7 4 11 6 W 0,0
15.06.2018 02:00:00 15,3 14,5 14,9 4 2 11 6 SSW 0,0
15.06.2018 01:00:00 14,9 14,3 14,0 4 2 11 6 SSW 0,0
15.06.2018 00:00:00 14,8 14,2 13,4 4 2 14 8 SW 0,0
14.06.2018 23:00:00 15,2 14,3 14,6 7 4 14 8 SSW 0,0
14.06.2018 22:00:00 15,4 14,5 15,1 7 4 14 8 SSW 0,0
14.06.2018 21:00:00 15,2 14,5 15,1 7 4 22 12 SSW 0,3
14.06.2018 20:00:00 15,8 14,0 15,3 7 4 32 18 SW 0,2
14.06.2018 19:00:00 17,0 13,2 16,9 11 6 25 14 SSW 0,0
14.06.2018 18:00:00 16,5 12,9 15,9 11 6 25 14 SSW 0,2
14.06.2018 17:00:00 16,5 13,2 16,1 14 8 29 16 SW 0,6
14.06.2018 16:00:00 17,6 12,3 17,0 18 10 32 18 WSW 0,2
14.06.2018 15:00:00 20,4 10,1 21,9 14 8 36 19 SW 0,0
14.06.2018 14:00:00 21,0 9,5 24,8 18 10 32 18 SSW 0,0
14.06.2018 13:00:00 20,6 8,9 24,9 18 10 36 19 SSW 0,0
14.06.2018 12:00:00 20,6 9,4 23,7 14 8 36 19 SSW 0,0
14.06.2018 11:00:00 19,4 8,8 24,8 22 12 36 19 SSW 0,0
14.06.2018 10:00:00 18,6 9,7 22,0 14 8 29 16 SSW 0,0
14.06.2018 09:00:00 16,8 9,7 20,4 14 8 22 12 S 0,0
14.06.2018 08:00:00 14,2 9,9 15,7 14 8 22 12 S 0,0
14.06.2018 07:00:00 12,2 9,4 11,3 11 6 14 8 S 0,0
14.06.2018 06:00:00 10,3 8,8 7,3 7 4 11 6 S 0,0
14.06.2018 05:00:00 8,9 7,8 3,1 7 4 11 6 S 0,0
14.06.2018 04:00:00 9,2 8,1 4,6 4 2 11 6 S 0,0
14.06.2018 03:00:00 8,3 7,8 2,8 0 0 4 2 N 0,0
14.06.2018 02:00:00 8,1 7,9 3,0 4 2 4 2 SSE 0,0
14.06.2018 01:00:00 8,5 8,3 3,5 4 2 4 2 SSE 0,0
14.06.2018 00:00:00 8,6 7,9 4,5 4 2 4 2 SSE 0,0
13.06.2018 23:00:00 11,0 9,3 6,9 4 2 4 2 SSE 0,0
13.06.2018 22:00:00 12,6 9,7 10,5 0 0 7 4 N 0,0
13.06.2018 21:00:00 15,3 9,4 15,1 7 4 18 10 NW 0,0
13.06.2018 20:00:00 16,1 9,2 16,1 14 8 29 16 NNW 0,0

tt = Température de l'air
td = dewpoint
tt 5cm = Température de l'air 5cm
ff = Vitesse du vent
fx = gusts
dd = Direction du vent
rr = Quantités de précipitations

stations d'obs. à proximité